sensor_id;sensor_type;location;lat;lon;timestamp;P1;durP1;ratioP1;P2;durP2;ratioP2
2053;SDS011;1032;52.542;13.440;2022-09-09T00:01:00;11.50;;;10.50;;
2053;SDS011;1032;52.542;13.440;2022-09-09T00:03:36;11.20;;;10.20;;
2053;SDS011;1032;52.542;13.440;2022-09-09T00:06:10;10.63;;;9.67;;
2053;SDS011;1032;52.542;13.440;2022-09-09T00:08:45;10.07;;;9.13;;
2053;SDS011;1032;52.542;13.440;2022-09-09T00:11:26;10.77;;;9.80;;
2053;SDS011;1032;52.542;13.440;2022-09-09T00:13:58;11.10;;;9.97;;
2053;SDS011;1032;52.542;13.440;2022-09-09T00:16:29;11.27;;;10.10;;
2053;SDS011;1032;52.542;13.440;2022-09-09T00:19:02;10.63;;;9.73;;
2053;SDS011;1032;52.542;13.440;2022-09-09T00:21:35;10.43;;;9.53;;
2053;SDS011;1032;52.542;13.440;2022-09-09T00:24:08;11.00;;;9.90;;
2053;SDS011;1032;52.542;13.440;2022-09-09T00:26:40;11.37;;;10.37;;
2053;SDS011;1032;52.542;13.440;2022-09-09T00:29:13;9.73;;;8.67;;
2053;SDS011;1032;52.542;13.440;2022-09-09T00:31:47;10.00;;;9.10;;
2053;SDS011;1032;52.542;13.440;2022-09-09T00:34:15;9.37;;;8.57;;
2053;SDS011;1032;52.542;13.440;2022-09-09T00:36:47;10.20;;;9.20;;
2053;SDS011;1032;52.542;13.440;2022-09-09T00:39:19;10.80;;;9.80;;
2053;SDS011;1032;52.542;13.440;2022-09-09T00:41:54;11.27;;;9.60;;
2053;SDS011;1032;52.542;13.440;2022-09-09T00:44:34;10.60;;;9.70;;
2053;SDS011;1032;52.542;13.440;2022-09-09T00:47:09;12.03;;;9.70;;
2053;SDS011;1032;52.542;13.440;2022-09-09T00:49:49;12.20;;;8.93;;
2053;SDS011;1032;52.542;13.440;2022-09-09T00:52:29;10.87;;;9.77;;
2053;SDS011;1032;52.542;13.440;2022-09-09T00:55:04;10.20;;;9.40;;
2053;SDS011;1032;52.542;13.440;2022-09-09T00:57:39;11.40;;;10.30;;
2053;SDS011;1032;52.542;13.440;2022-09-09T01:00:16;11.90;;;9.97;;
2053;SDS011;1032;52.542;13.440;2022-09-09T01:02:48;10.10;;;9.20;;
2053;SDS011;1032;52.542;13.440;2022-09-09T01:05:33;11.40;;;10.30;;
2053;SDS011;1032;52.542;13.440;2022-09-09T01:08:05;11.40;;;10.30;;
2053;SDS011;1032;52.542;13.440;2022-09-09T01:10:43;11.77;;;10.67;;
2053;SDS011;1032;52.542;13.440;2022-09-09T01:13:17;11.80;;;10.67;;
2053;SDS011;1032;52.542;13.440;2022-09-09T01:15:50;11.80;;;10.70;;
2053;SDS011;1032;52.542;13.440;2022-09-09T01:18:19;11.63;;;10.60;;
2053;SDS011;1032;52.542;13.440;2022-09-09T01:20:52;11.53;;;10.53;;
2053;SDS011;1032;52.542;13.440;2022-09-09T01:23:30;11.73;;;10.70;;
2053;SDS011;1032;52.542;13.440;2022-09-09T01:26:20;11.77;;;10.67;;
2053;SDS011;1032;52.542;13.440;2022-09-09T01:28:52;11.10;;;10.20;;
2053;SDS011;1032;52.542;13.440;2022-09-09T01:31:26;15.13;;;12.90;;
2053;SDS011;1032;52.542;13.440;2022-09-09T01:33:58;11.37;;;10.33;;
2053;SDS011;1032;52.542;13.440;2022-09-09T01:36:27;11.83;;;10.73;;
2053;SDS011;1032;52.542;13.440;2022-09-09T01:39:01;11.73;;;10.73;;
2053;SDS011;1032;52.542;13.440;2022-09-09T01:41:29;11.73;;;10.73;;
2053;SDS011;1032;52.542;13.440;2022-09-09T01:44:05;12.90;;;11.73;;
2053;SDS011;1032;52.542;13.440;2022-09-09T01:46:36;12.27;;;11.27;;
2053;SDS011;1032;52.542;13.440;2022-09-09T01:49:05;11.27;;;10.17;;
2053;SDS011;1032;52.542;13.440;2022-09-09T01:51:33;14.73;;;10.50;;
2053;SDS011;1032;52.542;13.440;2022-09-09T01:54:04;11.03;;;10.03;;
2053;SDS011;1032;52.542;13.440;2022-09-09T01:56:35;14.70;;;11.80;;
2053;SDS011;1032;52.542;13.440;2022-09-09T01:59:14;9.97;;;9.17;;
2053;SDS011;1032;52.542;13.440;2022-09-09T02:01:57;10.53;;;9.63;;
2053;SDS011;1032;52.542;13.440;2022-09-09T02:04:36;11.30;;;10.30;;
2053;SDS011;1032;52.542;13.440;2022-09-09T02:07:14;10.80;;;9.57;;
2053;SDS011;1032;52.542;13.440;2022-09-09T02:10:01;10.50;;;8.70;;
2053;SDS011;1032;52.542;13.440;2022-09-09T02:12:36;11.57;;;10.57;;
2053;SDS011;1032;52.542;13.440;2022-09-09T02:15:07;10.83;;;9.83;;
2053;SDS011;1032;52.542;13.440;2022-09-09T02:17:46;11.27;;;10.20;;
2053;SDS011;1032;52.542;13.440;2022-09-09T02:20:16;11.57;;;10.47;;
2053;SDS011;1032;52.542;13.440;2022-09-09T02:22:50;11.17;;;10.23;;
2053;SDS011;1032;52.542;13.440;2022-09-09T02:25:19;11.63;;;10.43;;
2053;SDS011;1032;52.542;13.440;2022-09-09T02:27:51;10.53;;;9.63;;
2053;SDS011;1032;52.542;13.440;2022-09-09T02:30:19;11.60;;;8.90;;
2053;SDS011;1032;52.542;13.440;2022-09-09T02:32:51;10.63;;;9.63;;
2053;SDS011;1032;52.542;13.440;2022-09-09T02:35:23;12.20;;;11.00;;
2053;SDS011;1032;52.542;13.440;2022-09-09T02:37:53;9.90;;;8.90;;
2053;SDS011;1032;52.542;13.440;2022-09-09T02:40:24;11.03;;;10.00;;
2053;SDS011;1032;52.542;13.440;2022-09-09T02:42:59;10.57;;;9.47;;
2053;SDS011;1032;52.542;13.440;2022-09-09T02:45:29;10.87;;;9.87;;
2053;SDS011;1032;52.542;13.440;2022-09-09T02:48:03;10.60;;;9.70;;
2053;SDS011;1032;52.542;13.440;2022-09-09T02:50:37;8.33;;;7.53;;
2053;SDS011;1032;52.542;13.440;2022-09-09T02:53:10;9.00;;;8.10;;
2053;SDS011;1032;52.542;13.440;2022-09-09T02:55:45;10.70;;;9.30;;
2053;SDS011;1032;52.542;13.440;2022-09-09T02:58:17;11.57;;;7.97;;
2053;SDS011;1032;52.542;13.440;2022-09-09T03:00:54;10.00;;;9.00;;
2053;SDS011;1032;52.542;13.440;2022-09-09T03:03:23;9.03;;;8.13;;
2053;SDS011;1032;52.542;13.440;2022-09-09T03:05:51;9.87;;;8.80;;
2053;SDS011;1032;52.542;13.440;2022-09-09T03:08:17;10.27;;;9.33;;
2053;SDS011;1032;52.542;13.440;2022-09-09T03:10:44;9.70;;;8.77;;
2053;SDS011;1032;52.542;13.440;2022-09-09T03:13:13;11.07;;;10.10;;
2053;SDS011;1032;52.542;13.440;2022-09-09T03:15:42;10.43;;;9.37;;
2053;SDS011;1032;52.542;13.440;2022-09-09T03:18:13;10.70;;;9.63;;
2053;SDS011;1032;52.542;13.440;2022-09-09T03:20:41;10.13;;;8.43;;
2053;SDS011;1032;52.542;13.440;2022-09-09T03:23:09;10.17;;;9.03;;
2053;SDS011;1032;52.542;13.440;2022-09-09T03:25:38;9.80;;;8.80;;
2053;SDS011;1032;52.542;13.440;2022-09-09T03:28:05;10.90;;;8.07;;
2053;SDS011;1032;52.542;13.440;2022-09-09T03:30:32;11.00;;;9.27;;
2053;SDS011;1032;52.542;13.440;2022-09-09T03:33:00;10.13;;;9.13;;
2053;SDS011;1032;52.542;13.440;2022-09-09T03:35:31;9.80;;;8.80;;
2053;SDS011;1032;52.542;13.440;2022-09-09T03:37:58;11.40;;;9.77;;
2053;SDS011;1032;52.542;13.440;2022-09-09T03:40:25;9.93;;;8.47;;
2053;SDS011;1032;52.542;13.440;2022-09-09T03:42:53;9.97;;;9.07;;
2053;SDS011;1032;52.542;13.440;2022-09-09T03:45:19;11.27;;;10.23;;
2053;SDS011;1032;52.542;13.440;2022-09-09T03:47:46;11.77;;;10.47;;
2053;SDS011;1032;52.542;13.440;2022-09-09T03:50:14;10.10;;;9.30;;
2053;SDS011;1032;52.542;13.440;2022-09-09T03:52:44;9.03;;;8.10;;
2053;SDS011;1032;52.542;13.440;2022-09-09T03:55:17;10.73;;;9.60;;
2053;SDS011;1032;52.542;13.440;2022-09-09T03:57:44;10.50;;;9.60;;
2053;SDS011;1032;52.542;13.440;2022-09-09T04:00:11;9.10;;;8.30;;
2053;SDS011;1032;52.542;13.440;2022-09-09T04:02:41;9.90;;;9.10;;
2053;SDS011;1032;52.542;13.440;2022-09-09T04:05:12;8.73;;;7.93;;
2053;SDS011;1032;52.542;13.440;2022-09-09T04:07:42;10.57;;;7.73;;
2053;SDS011;1032;52.542;13.440;2022-09-09T04:10:09;9.73;;;8.80;;
2053;SDS011;1032;52.542;13.440;2022-09-09T04:12:37;10.03;;;9.03;;
2053;SDS011;1032;52.542;13.440;2022-09-09T04:15:04;9.10;;;8.20;;
2053;SDS011;1032;52.542;13.440;2022-09-09T04:17:33;9.80;;;8.60;;
2053;SDS011;1032;52.542;13.440;2022-09-09T04:20:01;7.67;;;6.97;;
2053;SDS011;1032;52.542;13.440;2022-09-09T04:22:28;8.87;;;8.07;;
2053;SDS011;1032;52.542;13.440;2022-09-09T04:24:56;9.30;;;8.40;;
2053;SDS011;1032;52.542;13.440;2022-09-09T04:27:23;11.53;;;8.50;;
2053;SDS011;1032;52.542;13.440;2022-09-09T04:29:50;9.97;;;7.90;;
2053;SDS011;1032;52.542;13.440;2022-09-09T04:32:16;10.40;;;9.30;;
2053;SDS011;1032;52.542;13.440;2022-09-09T04:34:43;10.80;;;9.17;;
2053;SDS011;1032;52.542;13.440;2022-09-09T04:37:13;10.70;;;8.00;;
2053;SDS011;1032;52.542;13.440;2022-09-09T04:39:39;9.77;;;8.73;;
2053;SDS011;1032;52.542;13.440;2022-09-09T04:42:07;8.50;;;7.70;;
2053;SDS011;1032;52.542;13.440;2022-09-09T04:44:35;11.80;;;7.73;;
2053;SDS011;1032;52.542;13.440;2022-09-09T04:47:01;8.90;;;8.00;;
2053;SDS011;1032;52.542;13.440;2022-09-09T04:49:28;8.80;;;7.90;;
2053;SDS011;1032;52.542;13.440;2022-09-09T04:51:56;10.30;;;9.30;;
2053;SDS011;1032;52.542;13.440;2022-09-09T04:54:23;12.87;;;7.50;;
2053;SDS011;1032;52.542;13.440;2022-09-09T04:56:50;15.90;;;8.37;;
2053;SDS011;1032;52.542;13.440;2022-09-09T04:59:19;7.87;;;7.00;;
2053;SDS011;1032;52.542;13.440;2022-09-09T05:01:50;9.27;;;8.07;;
2053;SDS011;1032;52.542;13.440;2022-09-09T05:04:19;8.10;;;7.30;;
2053;SDS011;1032;52.542;13.440;2022-09-09T05:06:46;9.43;;;7.37;;
2053;SDS011;1032;52.542;13.440;2022-09-09T05:09:13;7.50;;;6.80;;
2053;SDS011;1032;52.542;13.440;2022-09-09T05:11:40;8.00;;;7.30;;
2053;SDS011;1032;52.542;13.440;2022-09-09T05:14:19;7.87;;;6.80;;
2053;SDS011;1032;52.542;13.440;2022-09-09T05:16:46;7.87;;;7.17;;
2053;SDS011;1032;52.542;13.440;2022-09-09T05:19:14;9.20;;;7.13;;
2053;SDS011;1032;52.542;13.440;2022-09-09T05:21:46;7.93;;;7.23;;
2053;SDS011;1032;52.542;13.440;2022-09-09T05:24:16;11.37;;;7.73;;
2053;SDS011;1032;52.542;13.440;2022-09-09T05:26:44;7.63;;;6.67;;
2053;SDS011;1032;52.542;13.440;2022-09-09T05:29:11;8.43;;;6.47;;
2053;SDS011;1032;52.542;13.440;2022-09-09T05:31:39;7.07;;;6.37;;
2053;SDS011;1032;52.542;13.440;2022-09-09T05:34:10;8.60;;;5.87;;
2053;SDS011;1032;52.542;13.440;2022-09-09T05:36:37;9.17;;;6.33;;
2053;SDS011;1032;52.542;13.440;2022-09-09T05:39:04;9.70;;;6.20;;
2053;SDS011;1032;52.542;13.440;2022-09-09T05:41:32;6.50;;;5.80;;
2053;SDS011;1032;52.542;13.440;2022-09-09T05:44:01;7.90;;;5.67;;
2053;SDS011;1032;52.542;13.440;2022-09-09T05:46:32;8.20;;;5.40;;
2053;SDS011;1032;52.542;13.440;2022-09-09T05:49:01;6.73;;;5.50;;
2053;SDS011;1032;52.542;13.440;2022-09-09T05:51:31;6.53;;;5.80;;
2053;SDS011;1032;52.542;13.440;2022-09-09T05:54:03;6.60;;;6.00;;
2053;SDS011;1032;52.542;13.440;2022-09-09T05:56:33;6.77;;;5.17;;
2053;SDS011;1032;52.542;13.440;2022-09-09T05:59:00;8.23;;;6.23;;
2053;SDS011;1032;52.542;13.440;2022-09-09T06:01:27;9.57;;;5.40;;
2053;SDS011;1032;52.542;13.440;2022-09-09T06:03:56;6.63;;;5.83;;
2053;SDS011;1032;52.542;13.440;2022-09-09T06:06:25;9.47;;;5.50;;
2053;SDS011;1032;52.542;13.440;2022-09-09T06:08:56;5.70;;;4.93;;
2053;SDS011;1032;52.542;13.440;2022-09-09T06:11:27;5.90;;;4.40;;
2053;SDS011;1032;52.542;13.440;2022-09-09T06:13:57;8.40;;;5.90;;
2053;SDS011;1032;52.542;13.440;2022-09-09T06:16:26;6.70;;;5.80;;
2053;SDS011;1032;52.542;13.440;2022-09-09T06:18:54;6.10;;;5.60;;
2053;SDS011;1032;52.542;13.440;2022-09-09T06:21:25;7.13;;;5.43;;
2053;SDS011;1032;52.542;13.440;2022-09-09T06:23:53;5.80;;;5.20;;
2053;SDS011;1032;52.542;13.440;2022-09-09T06:26:21;5.33;;;4.60;;
2053;SDS011;1032;52.542;13.440;2022-09-09T06:28:50;5.53;;;4.57;;
2053;SDS011;1032;52.542;13.440;2022-09-09T06:31:19;5.10;;;4.30;;
2053;SDS011;1032;52.542;13.440;2022-09-09T06:33:48;5.90;;;5.30;;
2053;SDS011;1032;52.542;13.440;2022-09-09T06:36:18;6.00;;;4.03;;
2053;SDS011;1032;52.542;13.440;2022-09-09T06:38:46;5.50;;;4.53;;
2053;SDS011;1032;52.542;13.440;2022-09-09T06:41:14;7.10;;;3.90;;
2053;SDS011;1032;52.542;13.440;2022-09-09T06:43:44;6.00;;;3.90;;
2053;SDS011;1032;52.542;13.440;2022-09-09T06:46:12;8.07;;;4.20;;
2053;SDS011;1032;52.542;13.440;2022-09-09T06:48:40;6.50;;;4.33;;
2053;SDS011;1032;52.542;13.440;2022-09-09T06:51:10;6.53;;;4.70;;
2053;SDS011;1032;52.542;13.440;2022-09-09T06:53:39;7.37;;;5.23;;
2053;SDS011;1032;52.542;13.440;2022-09-09T06:56:18;6.17;;;4.00;;
2053;SDS011;1032;52.542;13.440;2022-09-09T06:58:49;8.20;;;3.93;;
2053;SDS011;1032;52.542;13.440;2022-09-09T07:01:23;10.13;;;4.80;;
2053;SDS011;1032;52.542;13.440;2022-09-09T07:03:54;7.53;;;4.30;;
2053;SDS011;1032;52.542;13.440;2022-09-09T07:06:24;4.60;;;4.10;;
2053;SDS011;1032;52.542;13.440;2022-09-09T07:08:53;6.50;;;4.20;;
2053;SDS011;1032;52.542;13.440;2022-09-09T07:11:25;4.87;;;3.80;;
2053;SDS011;1032;52.542;13.440;2022-09-09T07:13:52;5.13;;;4.63;;
2053;SDS011;1032;52.542;13.440;2022-09-09T07:16:20;7.10;;;3.50;;
2053;SDS011;1032;52.542;13.440;2022-09-09T07:18:49;10.20;;;3.80;;
2053;SDS011;1032;52.542;13.440;2022-09-09T07:21:17;4.00;;;3.20;;
2053;SDS011;1032;52.542;13.440;2022-09-09T07:23:43;7.43;;;3.40;;
2053;SDS011;1032;52.542;13.440;2022-09-09T07:26:11;4.50;;;3.83;;
2053;SDS011;1032;52.542;13.440;2022-09-09T07:28:41;6.07;;;4.10;;
2053;SDS011;1032;52.542;13.440;2022-09-09T07:31:12;8.33;;;3.87;;
2053;SDS011;1032;52.542;13.440;2022-09-09T07:33:40;4.83;;;3.27;;
2053;SDS011;1032;52.542;13.440;2022-09-09T07:36:08;7.53;;;3.57;;
2053;SDS011;1032;52.542;13.440;2022-09-09T07:38:38;5.93;;;2.70;;
2053;SDS011;1032;52.542;13.440;2022-09-09T07:41:06;4.03;;;3.00;;
2053;SDS011;1032;52.542;13.440;2022-09-09T07:43:37;9.50;;;3.03;;
2053;SDS011;1032;52.542;13.440;2022-09-09T07:46:08;11.33;;;4.37;;
2053;SDS011;1032;52.542;13.440;2022-09-09T07:48:37;6.77;;;3.90;;
2053;SDS011;1032;52.542;13.440;2022-09-09T07:51:05;4.00;;;2.30;;
2053;SDS011;1032;52.542;13.440;2022-09-09T07:53:33;15.73;;;3.00;;
2053;SDS011;1032;52.542;13.440;2022-09-09T07:56:05;7.80;;;3.40;;
2053;SDS011;1032;52.542;13.440;2022-09-09T07:58:34;5.20;;;3.47;;
2053;SDS011;1032;52.542;13.440;2022-09-09T08:01:07;12.50;;;2.73;;
2053;SDS011;1032;52.542;13.440;2022-09-09T08:03:34;5.83;;;2.80;;
2053;SDS011;1032;52.542;13.440;2022-09-09T08:06:02;6.03;;;3.43;;
2053;SDS011;1032;52.542;13.440;2022-09-09T08:08:29;7.70;;;2.70;;
2053;SDS011;1032;52.542;13.440;2022-09-09T08:11:04;3.53;;;2.33;;
2053;SDS011;1032;52.542;13.440;2022-09-09T08:13:32;7.20;;;3.50;;
2053;SDS011;1032;52.542;13.440;2022-09-09T08:16:03;7.20;;;3.17;;
2053;SDS011;1032;52.542;13.440;2022-09-09T08:18:33;5.30;;;2.33;;
2053;SDS011;1032;52.542;13.440;2022-09-09T08:21:07;4.47;;;2.97;;
2053;SDS011;1032;52.542;13.440;2022-09-09T08:23:37;7.23;;;3.03;;
2053;SDS011;1032;52.542;13.440;2022-09-09T08:26:07;4.93;;;2.57;;
2053;SDS011;1032;52.542;13.440;2022-09-09T08:28:37;5.20;;;3.80;;
2053;SDS011;1032;52.542;13.440;2022-09-09T08:31:10;5.60;;;4.30;;
2053;SDS011;1032;52.542;13.440;2022-09-09T08:33:39;5.40;;;2.67;;
2053;SDS011;1032;52.542;13.440;2022-09-09T08:36:09;3.83;;;2.40;;
2053;SDS011;1032;52.542;13.440;2022-09-09T08:38:37;5.03;;;2.70;;
2053;SDS011;1032;52.542;13.440;2022-09-09T08:41:12;4.67;;;2.27;;
2053;SDS011;1032;52.542;13.440;2022-09-09T08:43:58;5.83;;;2.93;;
2053;SDS011;1032;52.542;13.440;2022-09-09T08:46:32;5.07;;;2.80;;
2053;SDS011;1032;52.542;13.440;2022-09-09T08:49:12;6.10;;;2.70;;
2053;SDS011;1032;52.542;13.440;2022-09-09T08:51:48;4.70;;;2.40;;
2053;SDS011;1032;52.542;13.440;2022-09-09T08:54:16;6.30;;;3.20;;
2053;SDS011;1032;52.542;13.440;2022-09-09T08:56:43;8.57;;;3.00;;
2053;SDS011;1032;52.542;13.440;2022-09-09T08:59:12;4.30;;;2.67;;
2053;SDS011;1032;52.542;13.440;2022-09-09T09:01:57;5.80;;;3.37;;
2053;SDS011;1032;52.542;13.440;2022-09-09T09:04:43;10.03;;;4.10;;
2053;SDS011;1032;52.542;13.440;2022-09-09T09:07:33;4.97;;;3.00;;
2053;SDS011;1032;52.542;13.440;2022-09-09T09:10:10;9.33;;;3.30;;
2053;SDS011;1032;52.542;13.440;2022-09-09T09:12:43;8.53;;;3.60;;
2053;SDS011;1032;52.542;13.440;2022-09-09T09:15:16;6.43;;;2.70;;
2053;SDS011;1032;52.542;13.440;2022-09-09T09:17:48;5.10;;;2.87;;
2053;SDS011;1032;52.542;13.440;2022-09-09T09:20:18;7.63;;;3.57;;
2053;SDS011;1032;52.542;13.440;2022-09-09T09:22:52;6.47;;;4.00;;
2053;SDS011;1032;52.542;13.440;2022-09-09T09:25:22;9.17;;;3.00;;
2053;SDS011;1032;52.542;13.440;2022-09-09T09:27:52;3.77;;;2.27;;
2053;SDS011;1032;52.542;13.440;2022-09-09T09:30:28;5.33;;;2.20;;
2053;SDS011;1032;52.542;13.440;2022-09-09T09:33:06;7.07;;;2.43;;
2053;SDS011;1032;52.542;13.440;2022-09-09T09:35:41;6.13;;;2.27;;
2053;SDS011;1032;52.542;13.440;2022-09-09T09:38:11;4.43;;;2.57;;
2053;SDS011;1032;52.542;13.440;2022-09-09T09:40:50;8.80;;;3.13;;
2053;SDS011;1032;52.542;13.440;2022-09-09T09:43:21;4.33;;;2.60;;
2053;SDS011;1032;52.542;13.440;2022-09-09T09:45:52;4.40;;;2.63;;
2053;SDS011;1032;52.542;13.440;2022-09-09T09:48:20;5.57;;;2.37;;
2053;SDS011;1032;52.542;13.440;2022-09-09T09:50:49;7.30;;;2.60;;
2053;SDS011;1032;52.542;13.440;2022-09-09T09:53:22;5.37;;;2.00;;
2053;SDS011;1032;52.542;13.440;2022-09-09T09:55:53;3.90;;;2.97;;
2053;SDS011;1032;52.542;13.440;2022-09-09T09:58:22;4.20;;;2.50;;
2053;SDS011;1032;52.542;13.440;2022-09-09T10:00:51;4.33;;;2.50;;
2053;SDS011;1032;52.542;13.440;2022-09-09T10:03:25;7.37;;;2.20;;
2053;SDS011;1032;52.542;13.440;2022-09-09T10:05:54;4.23;;;1.87;;
2053;SDS011;1032;52.542;13.440;2022-09-09T10:08:22;5.57;;;2.40;;
2053;SDS011;1032;52.542;13.440;2022-09-09T10:10:56;6.43;;;3.47;;
2053;SDS011;1032;52.542;13.440;2022-09-09T10:13:29;6.00;;;2.20;;
2053;SDS011;1032;52.542;13.440;2022-09-09T10:16:06;3.50;;;2.00;;
2053;SDS011;1032;52.542;13.440;2022-09-09T10:18:47;7.60;;;2.60;;
2053;SDS011;1032;52.542;13.440;2022-09-09T10:21:27;4.97;;;2.73;;
2053;SDS011;1032;52.542;13.440;2022-09-09T10:24:13;8.13;;;3.13;;
2053;SDS011;1032;52.542;13.440;2022-09-09T10:27:03;7.20;;;2.90;;
2053;SDS011;1032;52.542;13.440;2022-09-09T10:29:40;6.07;;;2.80;;
2053;SDS011;1032;52.542;13.440;2022-09-09T10:32:30;5.90;;;2.63;;
2053;SDS011;1032;52.542;13.440;2022-09-09T10:35:14;7.27;;;2.47;;
2053;SDS011;1032;52.542;13.440;2022-09-09T10:37:57;8.17;;;2.30;;
2053;SDS011;1032;52.542;13.440;2022-09-09T10:40:46;7.30;;;3.13;;
2053;SDS011;1032;52.542;13.440;2022-09-09T10:43:29;4.10;;;2.40;;
2053;SDS011;1032;52.542;13.440;2022-09-09T10:46:10;4.90;;;1.80;;
2053;SDS011;1032;52.542;13.440;2022-09-09T10:48:50;5.43;;;2.10;;
2053;SDS011;1032;52.542;13.440;2022-09-09T10:51:33;6.87;;;3.10;;
2053;SDS011;1032;52.542;13.440;2022-09-09T10:54:15;4.13;;;2.00;;
2053;SDS011;1032;52.542;13.440;2022-09-09T10:56:51;7.93;;;1.90;;
2053;SDS011;1032;52.542;13.440;2022-09-09T10:59:22;4.23;;;2.07;;
2053;SDS011;1032;52.542;13.440;2022-09-09T11:01:53;2.57;;;1.60;;
2053;SDS011;1032;52.542;13.440;2022-09-09T11:04:25;5.20;;;2.00;;
2053;SDS011;1032;52.542;13.440;2022-09-09T11:06:57;3.80;;;2.47;;
2053;SDS011;1032;52.542;13.440;2022-09-09T11:09:30;6.03;;;2.23;;
2053;SDS011;1032;52.542;13.440;2022-09-09T11:12:02;4.50;;;2.37;;
2053;SDS011;1032;52.542;13.440;2022-09-09T11:14:31;5.60;;;2.57;;
2053;SDS011;1032;52.542;13.440;2022-09-09T11:17:03;3.40;;;2.10;;
2053;SDS011;1032;52.542;13.440;2022-09-09T11:23:27;5.33;;;2.30;;
2053;SDS011;1032;52.542;13.440;2022-09-09T11:25:59;5.17;;;2.30;;
2053;SDS011;1032;52.542;13.440;2022-09-09T11:28:32;3.60;;;2.00;;
2053;SDS011;1032;52.542;13.440;2022-09-09T11:31:17;2.93;;;1.90;;
2053;SDS011;1032;52.542;13.440;2022-09-09T11:34:02;3.87;;;1.80;;
2053;SDS011;1032;52.542;13.440;2022-09-09T11:36:43;4.40;;;2.40;;
2053;SDS011;1032;52.542;13.440;2022-09-09T11:39:38;3.57;;;2.03;;
2053;SDS011;1032;52.542;13.440;2022-09-09T11:42:26;5.93;;;2.40;;
2053;SDS011;1032;52.542;13.440;2022-09-09T11:44:53;4.03;;;2.00;;
2053;SDS011;1032;52.542;13.440;2022-09-09T11:47:22;3.93;;;1.70;;
2053;SDS011;1032;52.542;13.440;2022-09-09T11:49:54;3.80;;;2.20;;
2053;SDS011;1032;52.542;13.440;2022-09-09T11:52:35;4.40;;;1.90;;
2053;SDS011;1032;52.542;13.440;2022-09-09T11:55:09;3.87;;;2.40;;
2053;SDS011;1032;52.542;13.440;2022-09-09T11:57:37;4.70;;;1.93;;
2053;SDS011;1032;52.542;13.440;2022-09-09T12:00:05;3.73;;;1.77;;
2053;SDS011;1032;52.542;13.440;2022-09-09T12:02:47;3.87;;;2.13;;
2053;SDS011;1032;52.542;13.440;2022-09-09T12:05:14;5.23;;;1.63;;
2053;SDS011;1032;52.542;13.440;2022-09-09T12:07:46;3.77;;;1.80;;
2053;SDS011;1032;52.542;13.440;2022-09-09T12:10:22;3.80;;;1.60;;
2053;SDS011;1032;52.542;13.440;2022-09-09T12:12:52;5.10;;;3.00;;
2053;SDS011;1032;52.542;13.440;2022-09-09T12:15:23;4.20;;;2.00;;
2053;SDS011;1032;52.542;13.440;2022-09-09T12:17:54;14.13;;;2.37;;
2053;SDS011;1032;52.542;13.440;2022-09-09T12:20:32;3.00;;;1.67;;
2053;SDS011;1032;52.542;13.440;2022-09-09T12:23:05;6.27;;;1.40;;
2053;SDS011;1032;52.542;13.440;2022-09-09T12:25:51;3.90;;;1.30;;
2053;SDS011;1032;52.542;13.440;2022-09-09T12:28:25;6.13;;;1.57;;
2053;SDS011;1032;52.542;13.440;2022-09-09T12:31:07;4.00;;;1.33;;
2053;SDS011;1032;52.542;13.440;2022-09-09T12:33:42;2.90;;;1.43;;
2053;SDS011;1032;52.542;13.440;2022-09-09T12:36:12;4.50;;;1.77;;
2053;SDS011;1032;52.542;13.440;2022-09-09T12:38:43;4.07;;;2.40;;
2053;SDS011;1032;52.542;13.440;2022-09-09T12:41:19;2.53;;;1.50;;
2053;SDS011;1032;52.542;13.440;2022-09-09T12:43:46;5.30;;;1.47;;
2053;SDS011;1032;52.542;13.440;2022-09-09T12:46:19;4.50;;;1.90;;
2053;SDS011;1032;52.542;13.440;2022-09-09T12:48:51;6.37;;;1.40;;
2053;SDS011;1032;52.542;13.440;2022-09-09T12:51:21;2.80;;;1.30;;
2053;SDS011;1032;52.542;13.440;2022-09-09T12:53:52;3.30;;;2.20;;
2053;SDS011;1032;52.542;13.440;2022-09-09T12:56:21;3.87;;;1.67;;
2053;SDS011;1032;52.542;13.440;2022-09-09T12:58:50;4.33;;;1.67;;
2053;SDS011;1032;52.542;13.440;2022-09-09T13:01:20;3.23;;;1.60;;
2053;SDS011;1032;52.542;13.440;2022-09-09T13:03:49;5.03;;;2.30;;
2053;SDS011;1032;52.542;13.440;2022-09-09T13:06:18;5.80;;;3.50;;
2053;SDS011;1032;52.542;13.440;2022-09-09T13:08:47;1.93;;;1.20;;
2053;SDS011;1032;52.542;13.440;2022-09-09T13:11:15;2.83;;;2.07;;
2053;SDS011;1032;52.542;13.440;2022-09-09T13:13:50;5.00;;;1.70;;
2053;SDS011;1032;52.542;13.440;2022-09-09T13:16:19;3.67;;;1.67;;
2053;SDS011;1032;52.542;13.440;2022-09-09T13:18:47;6.83;;;1.63;;
2053;SDS011;1032;52.542;13.440;2022-09-09T13:21:14;4.27;;;1.53;;
2053;SDS011;1032;52.542;13.440;2022-09-09T13:23:41;2.87;;;1.30;;
2053;SDS011;1032;52.542;13.440;2022-09-09T13:26:20;4.77;;;1.93;;
2053;SDS011;1032;52.542;13.440;2022-09-09T13:28:49;5.70;;;1.47;;
2053;SDS011;1032;52.542;13.440;2022-09-09T13:31:22;5.30;;;1.60;;
2053;SDS011;1032;52.542;13.440;2022-09-09T13:33:52;6.00;;;2.20;;
2053;SDS011;1032;52.542;13.440;2022-09-09T13:36:27;4.23;;;1.70;;
2053;SDS011;1032;52.542;13.440;2022-09-09T13:38:56;5.17;;;1.70;;
2053;SDS011;1032;52.542;13.440;2022-09-09T13:41:26;5.33;;;1.40;;
2053;SDS011;1032;52.542;13.440;2022-09-09T13:43:58;2.70;;;1.17;;
2053;SDS011;1032;52.542;13.440;2022-09-09T13:46:29;2.70;;;1.30;;
2053;SDS011;1032;52.542;13.440;2022-09-09T13:49:00;4.10;;;1.80;;
2053;SDS011;1032;52.542;13.440;2022-09-09T13:51:35;3.67;;;1.43;;
2053;SDS011;1032;52.542;13.440;2022-09-09T13:54:04;4.47;;;1.93;;
2053;SDS011;1032;52.542;13.440;2022-09-09T13:56:31;4.33;;;2.40;;
2053;SDS011;1032;52.542;13.440;2022-09-09T13:58:59;3.70;;;1.87;;
2053;SDS011;1032;52.542;13.440;2022-09-09T14:01:26;3.17;;;1.40;;
2053;SDS011;1032;52.542;13.440;2022-09-09T14:03:53;3.67;;;1.83;;
2053;SDS011;1032;52.542;13.440;2022-09-09T14:06:20;3.17;;;1.80;;
2053;SDS011;1032;52.542;13.440;2022-09-09T14:08:48;4.73;;;1.90;;
2053;SDS011;1032;52.542;13.440;2022-09-09T14:11:15;3.67;;;1.50;;
2053;SDS011;1032;52.542;13.440;2022-09-09T14:13:43;4.13;;;1.50;;
2053;SDS011;1032;52.542;13.440;2022-09-09T14:16:11;3.37;;;1.63;;
2053;SDS011;1032;52.542;13.440;2022-09-09T14:18:38;3.30;;;1.70;;
2053;SDS011;1032;52.542;13.440;2022-09-09T14:21:05;4.90;;;2.00;;
2053;SDS011;1032;52.542;13.440;2022-09-09T14:23:33;2.90;;;1.40;;
2053;SDS011;1032;52.542;13.440;2022-09-09T14:26:00;2.93;;;1.67;;
2053;SDS011;1032;52.542;13.440;2022-09-09T14:28:27;3.70;;;1.73;;
2053;SDS011;1032;52.542;13.440;2022-09-09T14:30:54;3.63;;;1.83;;
2053;SDS011;1032;52.542;13.440;2022-09-09T14:33:22;3.43;;;1.00;;
2053;SDS011;1032;52.542;13.440;2022-09-09T14:35:54;3.37;;;1.60;;
2053;SDS011;1032;52.542;13.440;2022-09-09T14:38:22;6.07;;;2.40;;
2053;SDS011;1032;52.542;13.440;2022-09-09T14:40:48;4.13;;;1.40;;
2053;SDS011;1032;52.542;13.440;2022-09-09T14:43:15;5.97;;;1.67;;
2053;SDS011;1032;52.542;13.440;2022-09-09T14:45:42;5.83;;;2.07;;
2053;SDS011;1032;52.542;13.440;2022-09-09T14:48:09;4.87;;;1.97;;
2053;SDS011;1032;52.542;13.440;2022-09-09T14:50:37;4.73;;;1.87;;
2053;SDS011;1032;52.542;13.440;2022-09-09T14:53:05;6.40;;;1.60;;
2053;SDS011;1032;52.542;13.440;2022-09-09T14:55:32;2.80;;;1.50;;
2053;SDS011;1032;52.542;13.440;2022-09-09T14:57:58;3.80;;;1.60;;
2053;SDS011;1032;52.542;13.440;2022-09-09T15:00:25;4.60;;;2.57;;
2053;SDS011;1032;52.542;13.440;2022-09-09T15:02:52;3.90;;;2.20;;
2053;SDS011;1032;52.542;13.440;2022-09-09T15:05:19;5.07;;;1.80;;
2053;SDS011;1032;52.542;13.440;2022-09-09T15:07:47;3.63;;;1.63;;
2053;SDS011;1032;52.542;13.440;2022-09-09T15:10:14;6.60;;;2.33;;
2053;SDS011;1032;52.542;13.440;2022-09-09T15:12:42;5.40;;;1.60;;
2053;SDS011;1032;52.542;13.440;2022-09-09T15:15:09;4.27;;;1.40;;
2053;SDS011;1032;52.542;13.440;2022-09-09T15:17:37;4.03;;;2.27;;
2053;SDS011;1032;52.542;13.440;2022-09-09T15:20:04;2.90;;;1.20;;
2053;SDS011;1032;52.542;13.440;2022-09-09T15:22:31;7.97;;;1.87;;
2053;SDS011;1032;52.542;13.440;2022-09-09T15:25:00;6.57;;;1.43;;